createdAt,value
2022-10-24T00:02:35.154Z,100113.00
2022-10-24T00:05:10.281Z,100115.72
2022-10-24T00:07:49.022Z,100115.53
2022-10-24T00:10:29.488Z,100112.94
2022-10-24T00:13:19.043Z,100121.16
2022-10-24T00:16:10.154Z,100125.03
2022-10-24T00:18:50.806Z,100126.72
2022-10-24T00:21:27.000Z,100120.16
2022-10-24T00:24:07.054Z,100105.00
2022-10-24T00:26:42.757Z,100108.31
2022-10-24T00:29:29.702Z,100108.31
2022-10-24T00:32:15.391Z,100105.00
2022-10-24T00:34:53.884Z,100108.47
2022-10-24T00:37:35.075Z,100111.94
2022-10-24T00:40:11.096Z,100115.78
2022-10-24T00:42:59.591Z,100099.56
2022-10-24T00:45:57.965Z,100102.06
2022-10-24T00:48:56.541Z,100102.91
2022-10-24T00:51:41.821Z,100090.97
2022-10-24T00:54:25.883Z,100102.97
2022-10-24T00:57:08.697Z,100098.97
2022-10-24T00:59:50.182Z,100104.03
2022-10-24T01:02:25.065Z,100106.38
2022-10-24T01:05:05.362Z,100099.28
2022-10-24T01:08:10.950Z,100107.53
2022-10-24T01:10:56.447Z,100099.28
2022-10-24T01:14:04.007Z,100090.53
2022-10-24T01:16:58.245Z,100084.69
2022-10-24T01:20:23.657Z,100081.72
2022-10-24T01:23:40.226Z,100069.44
2022-10-24T01:26:59.772Z,100080.69
2022-10-24T01:29:48.883Z,100088.13
2022-10-24T01:32:35.510Z,100086.50
2022-10-24T01:35:42.657Z,100094.47
2022-10-24T01:38:42.283Z,100086.97
2022-10-24T01:41:23.132Z,100084.47
2022-10-24T01:44:28.162Z,100096.94
2022-10-24T01:47:19.090Z,100094.09
2022-10-24T01:50:09.484Z,100078.94
2022-10-24T01:52:48.099Z,100080.16
2022-10-24T01:55:22.998Z,100079.34
2022-10-24T01:58:04.185Z,100076.69
2022-10-24T02:00:47.880Z,100075.03
2022-10-24T02:03:32.568Z,100073.38
2022-10-24T02:06:22.225Z,100071.38
2022-10-24T02:11:49.387Z,100084.69
2022-10-24T02:14:36.179Z,100080.22
2022-10-24T02:17:11.350Z,100084.75
2022-10-24T02:19:54.037Z,100083.47
2022-10-24T02:22:34.398Z,100080.00
2022-10-24T02:25:11.015Z,100079.25
2022-10-24T02:27:54.593Z,100088.81
2022-10-24T02:30:37.556Z,100074.28
2022-10-24T02:33:19.215Z,100064.34
2022-10-24T02:35:56.628Z,100073.59
2022-10-24T02:38:41.561Z,100059.19
2022-10-24T02:41:28.137Z,100050.34
2022-10-24T02:44:14.413Z,100050.41
2022-10-24T02:47:06.056Z,100053.59
2022-10-24T02:49:49.145Z,100044.41
2022-10-24T02:52:32.160Z,100042.78
2022-10-24T02:55:08.120Z,100049.84
2022-10-24T02:57:47.442Z,100040.44
2022-10-24T03:00:22.614Z,100026.50
2022-10-24T03:03:03.759Z,100016.66
2022-10-24T03:05:57.040Z,100009.31
2022-10-24T03:08:37.410Z,100016.63
2022-10-24T03:11:18.411Z,100025.13
2022-10-24T03:13:55.709Z,100029.69
2022-10-24T03:16:36.374Z,100037.13
2022-10-24T03:19:20.532Z,100024.63
2022-10-24T03:21:58.297Z,100031.97
2022-10-24T03:24:43.306Z,100044.56
2022-10-24T03:27:17.298Z,100054.66
2022-10-24T03:29:52.050Z,100049.16
2022-10-24T03:32:34.581Z,100050.59
2022-10-24T03:35:18.031Z,100063.16
2022-10-24T03:38:09.977Z,100046.75
2022-10-24T03:41:08.118Z,100048.63
2022-10-24T03:43:59.401Z,100054.72
2022-10-24T03:46:44.558Z,100047.25
2022-10-24T03:49:28.927Z,100042.28
2022-10-24T03:52:11.026Z,100023.03
2022-10-24T03:54:52.118Z,100010.59
2022-10-24T03:57:38.418Z,100023.16
2022-10-24T04:00:20.991Z,100019.84
2022-10-24T04:02:54.129Z,100029.19
2022-10-24T04:05:32.049Z,100035.81
2022-10-24T04:08:06.171Z,100033.19
2022-10-24T04:10:36.992Z,100026.09
2022-10-24T04:13:17.890Z,100030.84
2022-10-24T04:15:58.404Z,100037.31
2022-10-24T04:18:36.189Z,100028.69
2022-10-24T04:21:16.818Z,100037.16
2022-10-24T04:23:59.830Z,100035.28
2022-10-24T04:26:39.075Z,100040.84
2022-10-24T04:29:26.339Z,100065.03
2022-10-24T04:31:59.736Z,100065.94
2022-10-24T04:34:40.567Z,100073.38
2022-10-24T04:37:14.049Z,100061.72
2022-10-24T04:39:53.868Z,100053.22
2022-10-24T04:42:31.670Z,100047.63
2022-10-24T04:45:11.442Z,100040.78
2022-10-24T04:47:44.230Z,100042.59
2022-10-24T04:50:24.799Z,100036.34
2022-10-24T04:52:59.801Z,100024.63
2022-10-24T04:55:43.386Z,100022.09
2022-10-24T04:58:37.761Z,100011.59
2022-10-24T05:01:21.406Z,100021.72
2022-10-24T05:06:45.185Z,100014.97
2022-10-24T05:09:34.270Z,100018.47
2022-10-24T05:15:05.748Z,100019.94
2022-10-24T05:17:38.319Z,100019.13
2022-10-24T05:20:14.298Z,100023.31
2022-10-24T05:22:54.809Z,100022.47
2022-10-24T05:25:44.330Z,100025.19
2022-10-24T05:28:33.423Z,100030.59
2022-10-24T05:31:08.915Z,100052.28
2022-10-24T05:33:43.951Z,100055.59
2022-10-24T05:36:24.354Z,100064.09
2022-10-24T05:39:09.204Z,100061.06
2022-10-24T05:41:55.323Z,100069.34
2022-10-24T05:44:38.708Z,100077.88
2022-10-24T05:47:35.154Z,100080.13
2022-10-24T05:50:13.805Z,100083.69
2022-10-24T05:52:49.137Z,100097.41
2022-10-24T05:55:32.114Z,100102.63
2022-10-24T05:58:14.514Z,100107.59
2022-10-24T06:00:54.064Z,100111.19
2022-10-24T06:03:42.492Z,100105.53
2022-10-24T06:06:24.618Z,100094.66
2022-10-24T06:09:08.797Z,100101.56
2022-10-24T06:11:52.105Z,100097.25
2022-10-24T06:14:27.944Z,100101.19
2022-10-24T06:17:02.250Z,100113.00
2022-10-24T06:19:43.009Z,100112.75
2022-10-24T06:22:27.735Z,100115.25
2022-10-24T06:25:05.708Z,100119.63
2022-10-24T06:27:51.705Z,100119.78
2022-10-24T06:30:31.615Z,100122.72
2022-10-24T06:33:09.540Z,100115.59
2022-10-24T06:35:58.047Z,100110.00
2022-10-24T06:38:38.024Z,100106.69
2022-10-24T06:41:22.516Z,100106.78
2022-10-24T06:43:58.156Z,100102.16
2022-10-24T06:46:32.769Z,100099.53
2022-10-24T06:49:11.471Z,100105.13
2022-10-24T06:51:55.591Z,100103.63
2022-10-24T06:54:33.818Z,100101.56
2022-10-24T06:57:11.712Z,100108.59
2022-10-24T06:59:54.578Z,100109.66
2022-10-24T07:02:40.952Z,100109.63
2022-10-24T07:05:26.447Z,100104.88
2022-10-24T07:08:15.401Z,100098.19
2022-10-24T07:10:50.301Z,100088.19
2022-10-24T07:13:25.013Z,100090.44
2022-10-24T07:16:04.694Z,100093.38
2022-10-24T07:18:48.809Z,100091.66
2022-10-24T07:21:24.864Z,100091.25
2022-10-24T07:24:09.176Z,100086.78
2022-10-24T07:26:48.408Z,100093.19
2022-10-24T07:29:28.467Z,100097.13
2022-10-24T07:32:02.218Z,100090.47
2022-10-24T07:34:42.823Z,100102.72
2022-10-24T07:37:26.940Z,100113.25
2022-10-24T07:40:12.197Z,100129.47
2022-10-24T07:42:50.036Z,100138.09
2022-10-24T07:45:28.323Z,100136.66
2022-10-24T07:48:08.860Z,100143.56
2022-10-24T07:50:51.255Z,100146.56
2022-10-24T07:53:32.134Z,100146.56
2022-10-24T07:56:11.985Z,100140.94
2022-10-24T07:58:58.202Z,100122.72
2022-10-24T08:01:32.212Z,100079.25
2022-10-24T08:04:10.464Z,100073.22
2022-10-24T08:06:52.104Z,100084.47
2022-10-24T08:09:39.741Z,100074.13
2022-10-24T08:12:22.908Z,100070.81
2022-10-24T08:15:01.397Z,100071.97
2022-10-24T08:17:44.695Z,100072.03
2022-10-24T08:20:21.063Z,100068.50
2022-10-24T08:22:56.167Z,100066.16
2022-10-24T08:25:37.118Z,100062.63
2022-10-24T08:28:12.324Z,100060.28
2022-10-24T08:30:53.040Z,100055.19
2022-10-24T08:33:33.348Z,100055.66
2022-10-24T08:36:31.895Z,100053.63
2022-10-24T08:39:12.440Z,100070.03
2022-10-24T08:42:07.210Z,100055.09
2022-10-24T08:44:47.351Z,100059.75
2022-10-24T08:48:03.029Z,100059.97
2022-10-24T08:50:43.588Z,100061.25
2022-10-24T08:53:23.971Z,100062.47
2022-10-24T08:56:05.630Z,100063.50
2022-10-24T08:58:52.190Z,100053.13
2022-10-24T09:01:35.450Z,100048.06
2022-10-24T09:04:19.306Z,100044.06
2022-10-24T09:07:01.113Z,100049.94
2022-10-24T09:09:51.136Z,100047.47
2022-10-24T09:12:38.550Z,100044.28
2022-10-24T09:15:26.290Z,100055.63
2022-10-24T09:18:04.537Z,100053.75
2022-10-24T09:20:41.702Z,100054.56
2022-10-24T09:23:24.341Z,100064.59
2022-10-24T09:26:06.734Z,100075.09
2022-10-24T09:28:46.430Z,100066.56
2022-10-24T09:31:30.451Z,100067.97
2022-10-24T09:34:11.294Z,100064.66
2022-10-24T09:36:48.457Z,100073.91
2022-10-24T09:39:34.752Z,100077.09
2022-10-24T09:42:20.467Z,100082.66
2022-10-24T09:45:02.881Z,100086.91
2022-10-24T09:47:46.784Z,100089.00
2022-10-24T09:50:33.524Z,100096.56
2022-10-24T09:53:10.813Z,100098.81
2022-10-24T09:55:50.699Z,100096.97
2022-10-24T09:58:34.548Z,100098.38
2022-10-24T10:01:29.040Z,100116.38
2022-10-24T10:04:17.209Z,100111.75
2022-10-24T10:06:51.947Z,100102.19
2022-10-24T10:09:56.506Z,100104.56
2022-10-24T10:12:44.151Z,100101.22
2022-10-24T10:15:40.089Z,100097.78
2022-10-24T10:18:35.650Z,100101.53
2022-10-24T10:21:59.741Z,100096.50
2022-10-24T10:24:49.574Z,100076.75
2022-10-24T10:27:44.263Z,100075.91
2022-10-24T10:30:29.498Z,100063.75
2022-10-24T10:33:57.170Z,100068.97
2022-10-24T10:36:49.427Z,100061.88
2022-10-24T10:39:40.782Z,100051.25
2022-10-24T10:42:27.043Z,100058.38
2022-10-24T10:45:02.341Z,100053.41
2022-10-24T10:47:58.779Z,100042.63
2022-10-24T10:50:41.763Z,100045.72
2022-10-24T10:53:35.484Z,100041.81
2022-10-24T10:56:36.767Z,100034.00
2022-10-24T10:59:29.580Z,100029.88
2022-10-24T11:02:21.923Z,100036.94
2022-10-24T11:05:35.199Z,100041.19
2022-10-24T11:08:42.600Z,100041.91
2022-10-24T11:11:27.790Z,100032.59
2022-10-24T11:14:08.981Z,100019.19
2022-10-24T11:16:47.960Z,100019.34
2022-10-24T11:20:05.873Z,100015.31
2022-10-24T11:22:43.397Z,100015.69
2022-10-24T11:25:37.269Z,100009.66
2022-10-24T11:28:31.666Z,100015.63
2022-10-24T11:31:29.844Z,100005.84
2022-10-24T11:34:22.476Z,100018.25
2022-10-24T11:37:29.548Z,100012.22
2022-10-24T11:40:08.915Z,100001.75
2022-10-24T11:43:13.252Z,100005.53
2022-10-24T11:46:15.022Z,99997.13
2022-10-24T11:49:19.794Z,99995.50
2022-10-24T11:52:19.992Z,99999.59
2022-10-24T11:55:14.710Z,99998.97
2022-10-24T11:57:59.431Z,100008.06
2022-10-24T12:01:03.406Z,99999.91
2022-10-24T12:04:09.937Z,99988.13
2022-10-24T12:07:21.181Z,99975.91
2022-10-24T12:10:15.477Z,99978.72
2022-10-24T12:13:00.782Z,99984.75
2022-10-24T12:16:01.491Z,99977.66
2022-10-24T12:18:42.471Z,99975.50
2022-10-24T12:21:19.310Z,99974.66
2022-10-24T12:24:02.091Z,99980.78
2022-10-24T12:26:43.499Z,99985.41
2022-10-24T12:29:28.447Z,99982.69
2022-10-24T12:32:20.188Z,99983.19
2022-10-24T12:35:29.454Z,99975.09
2022-10-24T12:38:27.442Z,99966.75
2022-10-24T12:41:09.720Z,99966.94
2022-10-24T12:43:54.061Z,99968.06
2022-10-24T12:46:32.469Z,99961.94
2022-10-24T12:49:26.779Z,99962.88
2022-10-24T12:52:04.917Z,99969.16
2022-10-24T12:54:51.113Z,99956.50
2022-10-24T12:57:28.777Z,99966.44
2022-10-24T13:00:07.907Z,99954.81
2022-10-24T13:03:13.605Z,99954.63
2022-10-24T13:06:06.433Z,99961.00
2022-10-24T13:09:09.097Z,99957.59
2022-10-24T13:12:03.089Z,99964.44
2022-10-24T13:15:00.648Z,99956.19
2022-10-24T13:17:59.831Z,99952.97
2022-10-24T13:20:41.964Z,99949.63
2022-10-24T13:23:34.560Z,99944.16
2022-10-24T13:26:08.868Z,99932.38
2022-10-24T13:28:47.143Z,99923.72
2022-10-24T13:31:48.203Z,99938.59
2022-10-24T13:34:43.296Z,99927.34
2022-10-24T13:37:36.730Z,99931.06
2022-10-24T13:40:33.302Z,99930.25
2022-10-24T13:43:24.249Z,99934.00
2022-10-24T13:46:12.125Z,99926.63
2022-10-24T13:48:56.811Z,99930.69
2022-10-24T13:51:43.404Z,99935.94
2022-10-24T13:54:28.381Z,99932.16
2022-10-24T13:57:24.185Z,99938.44
2022-10-24T14:00:00.490Z,99928.94
2022-10-24T14:02:43.436Z,99912.59
2022-10-24T14:05:38.928Z,99927.75
2022-10-24T14:08:28.667Z,99927.75
2022-10-24T14:11:08.705Z,99922.47
2022-10-24T14:13:53.355Z,99920.59
2022-10-24T14:16:41.293Z,99912.91
2022-10-24T14:19:28.293Z,99909.13
2022-10-24T14:22:19.136Z,99922.16
2022-10-24T14:24:54.914Z,99915.41
2022-10-24T14:27:35.339Z,99913.09
2022-10-24T14:30:17.404Z,99937.69
2022-10-24T14:33:09.795Z,99930.72
2022-10-24T14:35:47.085Z,99917.13
2022-10-24T14:38:24.981Z,99922.44
2022-10-24T14:41:09.440Z,99914.41
2022-10-24T14:43:45.746Z,99921.63
2022-10-24T14:46:26.516Z,99922.34
2022-10-24T14:49:27.168Z,99921.78
2022-10-24T14:52:34.228Z,99921.94
2022-10-24T14:55:23.474Z,99927.28
2022-10-24T14:58:14.715Z,99921.59
2022-10-24T15:00:52.649Z,99928.09
2022-10-24T15:03:54.162Z,99922.06
2022-10-24T15:06:42.090Z,99921.25
2022-10-24T15:09:23.699Z,99923.97
2022-10-24T15:12:10.491Z,99924.22
2022-10-24T15:14:51.853Z,99932.94
2022-10-24T15:17:32.697Z,99932.72
2022-10-24T15:20:18.338Z,99932.28
2022-10-24T15:23:09.789Z,99931.44
2022-10-24T15:25:51.119Z,99919.75
2022-10-24T15:28:40.225Z,99908.72
2022-10-24T15:31:27.515Z,99911.34
2022-10-24T15:34:11.793Z,99909.72
2022-10-24T15:36:50.251Z,99914.56
2022-10-24T15:39:29.205Z,99932.53
2022-10-24T15:42:20.124Z,99914.22
2022-10-24T15:44:57.436Z,99918.38
2022-10-24T15:47:35.003Z,99914.69
2022-10-24T15:50:15.387Z,99919.31
2022-10-24T15:53:06.941Z,99919.22
2022-10-24T15:55:47.828Z,99910.22
2022-10-24T15:58:28.962Z,99903.16
2022-10-24T16:01:13.347Z,99899.47
2022-10-24T16:03:51.428Z,99901.16
2022-10-24T16:06:35.995Z,99904.91
2022-10-24T16:09:27.506Z,99917.34
2022-10-24T16:12:03.918Z,99910.03
2022-10-24T16:14:40.167Z,99893.63
2022-10-24T16:17:24.468Z,99897.31
2022-10-24T16:20:21.256Z,99906.06
2022-10-24T16:22:59.332Z,99906.06
2022-10-24T16:25:37.899Z,99906.88
2022-10-24T16:28:26.428Z,99915.97
2022-10-24T16:31:06.829Z,99925.91
2022-10-24T16:33:42.653Z,99917.28
2022-10-24T16:36:25.523Z,99918.34
2022-10-24T16:39:12.014Z,99929.56
2022-10-24T16:41:50.940Z,99925.09
2022-10-24T16:44:34.043Z,99928.13
2022-10-24T16:47:14.955Z,99926.25
2022-10-24T16:50:01.029Z,99934.50
2022-10-24T16:52:39.561Z,99934.66
2022-10-24T16:55:14.262Z,99935.84
2022-10-24T16:58:00.595Z,99943.50
2022-10-24T17:00:38.953Z,99936.66
2022-10-24T17:03:13.790Z,99936.56
2022-10-24T17:06:03.807Z,99944.69
2022-10-24T17:08:44.313Z,99932.16
2022-10-24T17:11:45.711Z,99940.31
2022-10-24T17:14:33.561Z,99935.13
2022-10-24T17:17:15.943Z,99933.47
2022-10-24T17:19:54.057Z,99926.97
2022-10-24T17:22:26.786Z,99931.34
2022-10-24T17:25:09.432Z,99928.03
2022-10-24T17:28:00.221Z,99920.84
2022-10-24T17:30:37.897Z,99919.66
2022-10-24T17:33:21.432Z,99909.63
2022-10-24T17:36:01.934Z,99909.88
2022-10-24T17:39:05.232Z,99915.06
2022-10-24T17:41:45.042Z,99914.09
2022-10-24T17:44:24.153Z,99910.22
2022-10-24T17:47:06.001Z,99906.91
2022-10-24T17:49:41.370Z,99912.13
2022-10-24T17:52:27.229Z,99912.13
2022-10-24T17:55:02.884Z,99916.94
2022-10-24T17:57:39.919Z,99910.56
2022-10-24T18:00:13.530Z,99920.50
2022-10-24T18:02:55.854Z,99911.63
2022-10-24T18:05:26.233Z,99919.56
2022-10-24T18:08:09.073Z,99916.25
2022-10-24T18:10:50.276Z,99925.81
2022-10-24T18:13:33.639Z,99928.41
2022-10-24T18:16:12.003Z,99913.00
2022-10-24T18:18:50.514Z,99898.84
2022-10-24T18:21:29.517Z,99915.59
2022-10-24T18:24:10.674Z,99919.47
2022-10-24T18:26:49.711Z,99924.16
2022-10-24T18:29:25.086Z,99920.88
2022-10-24T18:32:08.212Z,99916.34
2022-10-24T18:35:02.805Z,99913.78
2022-10-24T18:37:37.775Z,99912.56
2022-10-24T18:40:11.856Z,99906.88
2022-10-24T18:43:06.054Z,99896.25
2022-10-24T18:45:41.796Z,99887.97
2022-10-24T18:48:16.802Z,99882.53
2022-10-24T18:50:56.606Z,99876.78
2022-10-24T18:53:36.305Z,99868.63
2022-10-24T18:56:21.181Z,99863.81
2022-10-24T18:58:57.961Z,99860.97
2022-10-24T19:01:55.019Z,99855.28
2022-10-24T19:04:37.229Z,99854.06
2022-10-24T19:07:12.306Z,99842.06
2022-10-24T19:09:47.372Z,99836.03
2022-10-24T19:12:22.337Z,99847.22
2022-10-24T19:15:04.231Z,99851.38
2022-10-24T19:17:46.023Z,99858.91
2022-10-24T19:20:26.981Z,99862.59
2022-10-24T19:23:06.202Z,99856.41
2022-10-24T19:25:50.142Z,99854.31
2022-10-24T19:28:20.868Z,99843.34
2022-10-24T19:31:14.929Z,99839.41
2022-10-24T19:33:50.014Z,99837.25
2022-10-24T19:36:28.402Z,99848.91
2022-10-24T19:39:12.380Z,99848.53
2022-10-24T19:41:47.774Z,99849.84
2022-10-24T19:44:25.630Z,99859.56
2022-10-24T19:47:03.501Z,99858.38
2022-10-24T19:49:47.806Z,99861.28
2022-10-24T19:52:22.510Z,99861.28
2022-10-24T19:54:57.877Z,99862.56
2022-10-24T19:57:45.488Z,99856.41
2022-10-24T20:00:26.167Z,99848.44
2022-10-24T20:03:00.970Z,99840.31
2022-10-24T20:05:37.070Z,99838.66
2022-10-24T20:08:15.147Z,99843.94
2022-10-24T20:10:57.658Z,99846.03
2022-10-24T20:13:33.684Z,99840.44
2022-10-24T20:16:25.285Z,99842.78
2022-10-24T20:19:06.452Z,99825.94
2022-10-24T20:21:45.316Z,99812.41
2022-10-24T20:24:17.897Z,99809.47
2022-10-24T20:27:02.620Z,99804.50
2022-10-24T20:29:37.982Z,99817.53
2022-10-24T20:32:17.363Z,99816.00
2022-10-24T20:34:56.145Z,99824.13
2022-10-24T20:37:33.501Z,99821.41
2022-10-24T20:40:18.027Z,99818.50
2022-10-24T20:43:10.271Z,99814.88
2022-10-24T20:45:59.885Z,99815.34
2022-10-24T20:48:36.327Z,99807.59
2022-10-24T20:51:17.587Z,99808.19
2022-10-24T20:53:55.436Z,99812.94
2022-10-24T20:56:30.999Z,99806.69
2022-10-24T20:59:11.553Z,99804.81
2022-10-24T21:01:47.262Z,99810.53
2022-10-24T21:04:25.581Z,99806.78
2022-10-24T21:07:08.467Z,99808.63
2022-10-24T21:09:51.349Z,99811.59
2022-10-24T21:12:34.255Z,99819.25
2022-10-24T21:15:35.328Z,99820.00
2022-10-24T21:18:13.518Z,99821.50
2022-10-24T21:20:51.438Z,99824.47
2022-10-24T21:23:29.322Z,99826.47
2022-10-24T21:26:14.197Z,99824.81
2022-10-24T21:29:08.933Z,99825.44
2022-10-24T21:32:05.758Z,99820.22
2022-10-24T21:34:43.977Z,99819.34
2022-10-24T21:37:21.856Z,99830.25
2022-10-24T21:40:05.376Z,99835.03
2022-10-24T21:42:43.515Z,99824.97
2022-10-24T21:45:25.020Z,99828.88
2022-10-24T21:48:00.011Z,99839.00
2022-10-24T21:53:26.540Z,99842.97
2022-10-24T21:56:21.377Z,99850.84
2022-10-24T21:59:05.828Z,99849.66
2022-10-24T22:01:42.296Z,99849.31
2022-10-24T22:04:30.477Z,99844.00
2022-10-24T22:07:10.286Z,99850.03
2022-10-24T22:09:45.418Z,99864.88
2022-10-24T22:12:21.022Z,99868.28
2022-10-24T22:14:56.234Z,99877.03
2022-10-24T22:17:30.845Z,99880.34
2022-10-24T22:20:02.712Z,99883.88
2022-10-24T22:22:39.977Z,99885.97
2022-10-24T22:25:15.776Z,99877.63
2022-10-24T22:27:59.474Z,99877.41
2022-10-24T22:30:51.176Z,99860.03
2022-10-24T22:33:41.518Z,99856.16
2022-10-24T22:36:27.057Z,99861.97
2022-10-24T22:39:07.832Z,99864.81
2022-10-24T22:41:54.992Z,99867.69
2022-10-24T22:44:31.852Z,99879.72
2022-10-24T22:47:27.576Z,99880.78
2022-10-24T22:50:10.201Z,99872.63
2022-10-24T22:52:58.407Z,99876.09
2022-10-24T22:55:49.796Z,99878.34
2022-10-24T22:58:24.722Z,99881.03
2022-10-24T23:01:00.977Z,99875.28
2022-10-24T23:03:48.463Z,99861.59
2022-10-24T23:06:37.633Z,99869.06
2022-10-24T23:09:17.042Z,99865.75
2022-10-24T23:11:57.636Z,99860.09
2022-10-24T23:14:39.467Z,99862.81
2022-10-24T23:17:19.991Z,99859.88
2022-10-24T23:19:58.659Z,99854.22
2022-10-24T23:22:37.108Z,99863.53
2022-10-24T23:25:18.360Z,99856.84
2022-10-24T23:28:12.274Z,99860.97
2022-10-24T23:30:49.916Z,99847.16
2022-10-24T23:33:36.316Z,99831.50
2022-10-24T23:36:25.207Z,99827.97
2022-10-24T23:39:09.476Z,99827.13
2022-10-24T23:41:50.295Z,99815.00
2022-10-24T23:44:28.829Z,99824.78
2022-10-24T23:47:27.028Z,99824.91
2022-10-24T23:50:17.597Z,99827.75
2022-10-24T23:53:06.340Z,99825.97
2022-10-24T23:55:43.886Z,99809.72
2022-10-24T23:58:23.741Z,99803.69
